sensor_id;sensor_type;location;lat;lon;timestamp;pressure;altitude;pressure_sealevel;temperature;humidity
21290;BME280;10804;48.988;2.408;2023-01-25T00:02:02;102785.28;;;6.23;67.36
21290;BME280;10804;48.988;2.408;2023-01-25T00:04:29;102787.84;;;6.21;67.43
21290;BME280;10804;48.988;2.408;2023-01-25T00:06:56;102789.59;;;6.22;67.35
21290;BME280;10804;48.988;2.408;2023-01-25T00:09:24;102781.81;;;6.22;67.40
21290;BME280;10804;48.988;2.408;2023-01-25T00:11:52;102780.91;;;6.22;67.03
21290;BME280;10804;48.988;2.408;2023-01-25T00:14:23;102780.91;;;6.20;67.30
21290;BME280;10804;48.988;2.408;2023-01-25T00:16:50;102787.00;;;6.22;67.06
21290;BME280;10804;48.988;2.408;2023-01-25T00:19:18;102778.31;;;6.22;67.24
21290;BME280;10804;48.988;2.408;2023-01-25T00:21:46;102780.00;;;6.20;67.31
21290;BME280;10804;48.988;2.408;2023-01-25T00:24:13;102785.25;;;6.21;67.12
21290;BME280;10804;48.988;2.408;2023-01-25T00:26:42;102780.91;;;6.20;67.28
21290;BME280;10804;48.988;2.408;2023-01-25T00:29:11;102777.47;;;6.21;67.54
21290;BME280;10804;48.988;2.408;2023-01-25T00:31:49;102767.09;;;6.21;67.33
21290;BME280;10804;48.988;2.408;2023-01-25T00:34:44;102777.53;;;6.23;67.15
21290;BME280;10804;48.988;2.408;2023-01-25T00:37:18;102763.63;;;6.21;67.48
21290;BME280;10804;48.988;2.408;2023-01-25T00:39:46;102776.59;;;6.21;67.20
21290;BME280;10804;48.988;2.408;2023-01-25T00:42:15;102773.09;;;6.19;67.25
21290;BME280;10804;48.988;2.408;2023-01-25T00:44:44;102770.53;;;6.20;67.06
21290;BME280;10804;48.988;2.408;2023-01-25T00:47:14;102773.09;;;6.19;67.34
21290;BME280;10804;48.988;2.408;2023-01-25T00:49:42;102773.13;;;6.20;67.09
21290;BME280;10804;48.988;2.408;2023-01-25T00:52:11;102767.09;;;6.21;67.43
21290;BME280;10804;48.988;2.408;2023-01-25T00:54:39;102778.31;;;6.20;67.29
21290;BME280;10804;48.988;2.408;2023-01-25T00:57:07;102768.75;;;6.18;67.22
21290;BME280;10804;48.988;2.408;2023-01-25T00:59:35;102769.66;;;6.20;67.22
21290;BME280;10804;48.988;2.408;2023-01-25T01:02:02;102760.13;;;6.19;67.25
21290;BME280;10804;48.988;2.408;2023-01-25T01:04:31;102762.78;;;6.20;67.30
21290;BME280;10804;48.988;2.408;2023-01-25T01:06:59;102766.16;;;6.18;67.26
21290;BME280;10804;48.988;2.408;2023-01-25T01:09:26;102762.72;;;6.19;67.34
21290;BME280;10804;48.988;2.408;2023-01-25T01:11:54;102756.69;;;6.18;67.28
21290;BME280;10804;48.988;2.408;2023-01-25T01:14:22;102765.31;;;6.19;67.35
21290;BME280;10804;48.988;2.408;2023-01-25T01:16:50;102755.78;;;6.18;67.25
21290;BME280;10804;48.988;2.408;2023-01-25T01:19:18;102759.22;;;6.17;67.34
21290;BME280;10804;48.988;2.408;2023-01-25T01:21:47;102762.72;;;6.19;67.22
21290;BME280;10804;48.988;2.408;2023-01-25T01:24:14;102751.41;;;6.15;67.38
21290;BME280;10804;48.988;2.408;2023-01-25T01:26:42;102752.34;;;6.19;67.00
21290;BME280;10804;48.988;2.408;2023-01-25T01:29:10;102753.25;;;6.19;67.31
21290;BME280;10804;48.988;2.408;2023-01-25T01:31:37;102747.06;;;6.14;67.37
21290;BME280;10804;48.988;2.408;2023-01-25T01:34:12;102752.31;;;6.17;67.36
21290;BME280;10804;48.988;2.408;2023-01-25T01:36:40;102759.22;;;6.17;67.45
21290;BME280;10804;48.988;2.408;2023-01-25T01:39:09;102763.56;;;6.18;67.36
21290;BME280;10804;48.988;2.408;2023-01-25T01:41:37;102763.53;;;6.16;67.27
21290;BME280;10804;48.988;2.408;2023-01-25T01:44:12;102754.78;;;6.13;67.30
21290;BME280;10804;48.988;2.408;2023-01-25T01:46:42;102769.63;;;6.18;67.23
21290;BME280;10804;48.988;2.408;2023-01-25T01:49:18;102765.25;;;6.17;67.20
21290;BME280;10804;48.988;2.408;2023-01-25T01:51:49;102766.16;;;6.18;67.37
21290;BME280;10804;48.988;2.408;2023-01-25T01:54:27;102773.03;;;6.17;67.25
21290;BME280;10804;48.988;2.408;2023-01-25T01:56:58;102773.88;;;6.16;67.27
21290;BME280;10804;48.988;2.408;2023-01-25T01:59:43;102773.88;;;6.16;67.28
21290;BME280;10804;48.988;2.408;2023-01-25T02:02:12;102772.97;;;6.14;67.11
21290;BME280;10804;48.988;2.408;2023-01-25T02:04:41;102773.81;;;6.13;67.39
21290;BME280;10804;48.988;2.408;2023-01-25T02:07:16;102773.88;;;6.15;67.45
21290;BME280;10804;48.988;2.408;2023-01-25T02:09:49;102779.06;;;6.16;67.32
21290;BME280;10804;48.988;2.408;2023-01-25T02:12:19;102773.88;;;6.16;67.46
21290;BME280;10804;48.988;2.408;2023-01-25T02:14:51;102775.56;;;6.14;67.31
21290;BME280;10804;48.988;2.408;2023-01-25T02:17:24;102782.44;;;6.12;67.25
21290;BME280;10804;48.988;2.408;2023-01-25T02:19:55;102791.09;;;6.14;67.35
21290;BME280;10804;48.988;2.408;2023-01-25T02:22:31;102771.28;;;6.16;67.29
21290;BME280;10804;48.988;2.408;2023-01-25T02:25:06;102774.59;;;6.11;67.63
21290;BME280;10804;48.988;2.408;2023-01-25T02:27:38;102779.00;;;6.13;67.65
21290;BME280;10804;48.988;2.408;2023-01-25T02:30:09;102776.47;;;6.15;67.32
21290;BME280;10804;48.988;2.408;2023-01-25T02:32:36;102784.13;;;6.12;67.29
21290;BME280;10804;48.988;2.408;2023-01-25T02:35:04;102778.16;;;6.14;67.37
21290;BME280;10804;48.988;2.408;2023-01-25T02:37:32;102772.09;;;6.14;67.33
21290;BME280;10804;48.988;2.408;2023-01-25T02:39:59;102787.69;;;6.15;67.28
21290;BME280;10804;48.988;2.408;2023-01-25T02:42:30;102795.44;;;6.15;67.38
21290;BME280;10804;48.988;2.408;2023-01-25T02:45:01;102791.09;;;6.14;67.60
21290;BME280;10804;48.988;2.408;2023-01-25T02:47:29;102790.22;;;6.14;67.31
21290;BME280;10804;48.988;2.408;2023-01-25T02:49:57;102788.47;;;6.13;67.33
21290;BME280;10804;48.988;2.408;2023-01-25T02:52:24;102787.59;;;6.12;67.38
21290;BME280;10804;48.988;2.408;2023-01-25T02:54:51;102788.47;;;6.13;67.43
21290;BME280;10804;48.988;2.408;2023-01-25T02:57:19;102769.47;;;6.12;67.36
21290;BME280;10804;48.988;2.408;2023-01-25T02:59:48;102773.81;;;6.13;67.49
21290;BME280;10804;48.988;2.408;2023-01-25T03:02:16;102780.69;;;6.11;67.38
21290;BME280;10804;48.988;2.408;2023-01-25T03:04:44;102771.19;;;6.12;67.47
21290;BME280;10804;48.988;2.408;2023-01-25T03:07:12;102780.69;;;6.13;67.51
21290;BME280;10804;48.988;2.408;2023-01-25T03:09:39;102769.50;;;6.14;67.46
21290;BME280;10804;48.988;2.408;2023-01-25T03:12:07;102772.06;;;6.12;67.27
21290;BME280;10804;48.988;2.408;2023-01-25T03:14:35;102777.16;;;6.09;67.53
21290;BME280;10804;48.988;2.408;2023-01-25T03:17:04;102771.22;;;6.13;67.52
21290;BME280;10804;48.988;2.408;2023-01-25T03:19:31;102770.31;;;6.11;67.41
21290;BME280;10804;48.988;2.408;2023-01-25T03:21:58;102781.50;;;6.10;67.58
21290;BME280;10804;48.988;2.408;2023-01-25T03:24:27;102768.59;;;6.12;67.47
21290;BME280;10804;48.988;2.408;2023-01-25T03:26:54;102771.19;;;6.12;67.42
21290;BME280;10804;48.988;2.408;2023-01-25T03:29:46;102765.13;;;6.11;67.53
21290;BME280;10804;48.988;2.408;2023-01-25T03:32:20;102768.59;;;6.12;67.40
21290;BME280;10804;48.988;2.408;2023-01-25T03:34:48;102762.56;;;6.13;67.20
21290;BME280;10804;48.988;2.408;2023-01-25T03:37:17;102766.88;;;6.12;67.37
21290;BME280;10804;48.988;2.408;2023-01-25T03:39:44;102765.09;;;6.10;67.48
21290;BME280;10804;48.988;2.408;2023-01-25T03:42:12;102773.72;;;6.10;67.45
21290;BME280;10804;48.988;2.408;2023-01-25T03:44:42;102767.72;;;6.11;67.34
21290;BME280;10804;48.988;2.408;2023-01-25T03:47:09;102770.28;;;6.10;67.46
21290;BME280;10804;48.988;2.408;2023-01-25T03:49:38;102763.28;;;6.07;67.36
21290;BME280;10804;48.988;2.408;2023-01-25T03:52:08;102759.91;;;6.10;67.46
21290;BME280;10804;48.988;2.408;2023-01-25T03:54:38;102758.19;;;6.10;67.44
21290;BME280;10804;48.988;2.408;2023-01-25T03:57:07;102757.31;;;6.10;67.41
21290;BME280;10804;48.988;2.408;2023-01-25T03:59:45;102754.69;;;6.08;67.33
21290;BME280;10804;48.988;2.408;2023-01-25T04:02:12;102750.41;;;6.10;67.51
21290;BME280;10804;48.988;2.408;2023-01-25T04:04:41;102753.00;;;6.10;67.48
21290;BME280;10804;48.988;2.408;2023-01-25T04:07:09;102747.81;;;6.10;67.47
21290;BME280;10804;48.988;2.408;2023-01-25T04:09:39;102751.25;;;6.09;67.31
21290;BME280;10804;48.988;2.408;2023-01-25T04:12:08;102750.41;;;6.10;67.41
21290;BME280;10804;48.988;2.408;2023-01-25T04:14:37;102755.59;;;6.10;67.36
21290;BME280;10804;48.988;2.408;2023-01-25T04:17:05;102755.53;;;6.07;67.33
21290;BME280;10804;48.988;2.408;2023-01-25T04:19:47;102746.91;;;6.08;67.36
21290;BME280;10804;48.988;2.408;2023-01-25T04:22:18;102752.09;;;6.08;67.36
21290;BME280;10804;48.988;2.408;2023-01-25T04:24:47;102752.03;;;6.07;67.46
21290;BME280;10804;48.988;2.408;2023-01-25T04:27:14;102755.47;;;6.06;67.53
21290;BME280;10804;48.988;2.408;2023-01-25T04:29:52;102754.69;;;6.08;67.32
21290;BME280;10804;48.988;2.408;2023-01-25T04:32:20;102754.69;;;6.08;67.48
21290;BME280;10804;48.988;2.408;2023-01-25T04:34:50;102751.19;;;6.06;67.40
21290;BME280;10804;48.988;2.408;2023-01-25T04:37:21;102748.66;;;6.08;67.48
21290;BME280;10804;48.988;2.408;2023-01-25T04:39:57;102749.44;;;6.07;67.25
21290;BME280;10804;48.988;2.408;2023-01-25T04:42:27;102749.44;;;6.07;67.72
21290;BME280;10804;48.988;2.408;2023-01-25T04:44:56;102744.31;;;6.08;67.46
21290;BME280;10804;48.988;2.408;2023-01-25T04:47:23;102754.63;;;6.07;67.55
21290;BME280;10804;48.988;2.408;2023-01-25T04:49:52;102752.88;;;6.04;67.53
21290;BME280;10804;48.988;2.408;2023-01-25T04:52:23;102741.69;;;6.07;67.35
21290;BME280;10804;48.988;2.408;2023-01-25T04:54:51;102752.03;;;6.07;67.36
21290;BME280;10804;48.988;2.408;2023-01-25T04:57:18;102737.34;;;6.04;67.53
21290;BME280;10804;48.988;2.408;2023-01-25T04:59:50;102745.16;;;6.07;67.47
21290;BME280;10804;48.988;2.408;2023-01-25T05:02:18;102740.81;;;6.06;67.44
21290;BME280;10804;48.988;2.408;2023-01-25T05:04:46;102743.41;;;6.06;67.51
21290;BME280;10804;48.988;2.408;2023-01-25T05:07:15;102751.19;;;6.06;67.62
21290;BME280;10804;48.988;2.408;2023-01-25T05:09:42;102746.84;;;6.05;67.44
21290;BME280;10804;48.988;2.408;2023-01-25T05:12:10;102747.66;;;6.03;67.59
21290;BME280;10804;48.988;2.408;2023-01-25T05:14:53;102745.06;;;6.03;67.54
21290;BME280;10804;48.988;2.408;2023-01-25T05:17:20;102734.75;;;6.06;67.55
21290;BME280;10804;48.988;2.408;2023-01-25T05:19:48;102742.50;;;6.04;67.54
21290;BME280;10804;48.988;2.408;2023-01-25T05:22:20;102729.56;;;6.06;67.48
21290;BME280;10804;48.988;2.408;2023-01-25T05:24:53;102738.13;;;6.02;67.60
21290;BME280;10804;48.988;2.408;2023-01-25T05:27:24;102729.56;;;6.06;67.60
21290;BME280;10804;48.988;2.408;2023-01-25T05:29:54;102736.50;;;6.05;67.66
21290;BME280;10804;48.988;2.408;2023-01-25T05:32:37;102733.81;;;6.02;67.61
21290;BME280;10804;48.988;2.408;2023-01-25T05:35:06;102739.09;;;6.05;67.35
21290;BME280;10804;48.988;2.408;2023-01-25T05:37:35;102736.44;;;6.04;67.43
21290;BME280;10804;48.988;2.408;2023-01-25T05:40:08;102740.75;;;6.03;67.58
21290;BME280;10804;48.988;2.408;2023-01-25T05:42:38;102734.69;;;6.03;67.49
21290;BME280;10804;48.988;2.408;2023-01-25T05:45:11;102733.81;;;6.02;67.53
21290;BME280;10804;48.988;2.408;2023-01-25T05:47:39;102736.44;;;6.04;67.55
21290;BME280;10804;48.988;2.408;2023-01-25T05:50:07;102733.81;;;6.02;67.46
21290;BME280;10804;48.988;2.408;2023-01-25T05:52:48;102738.97;;;6.02;67.69
21290;BME280;10804;48.988;2.408;2023-01-25T05:55:16;102738.13;;;6.02;67.58
21290;BME280;10804;48.988;2.408;2023-01-25T05:57:44;102732.94;;;6.02;67.40
21290;BME280;10804;48.988;2.408;2023-01-25T06:00:12;102726.88;;;6.01;67.55
21290;BME280;10804;48.988;2.408;2023-01-25T06:02:40;102726.94;;;6.03;67.46
21290;BME280;10804;48.988;2.408;2023-01-25T06:05:13;102731.19;;;6.01;67.41
21290;BME280;10804;48.988;2.408;2023-01-25T06:07:40;102722.50;;;5.99;67.64
21290;BME280;10804;48.988;2.408;2023-01-25T06:10:09;102728.63;;;6.02;67.65
21290;BME280;10804;48.988;2.408;2023-01-25T06:12:37;102726.03;;;6.02;67.44
21290;BME280;10804;48.988;2.408;2023-01-25T06:15:07;102732.00;;;5.98;67.74
21290;BME280;10804;48.988;2.408;2023-01-25T06:17:34;102724.28;;;6.00;67.49
21290;BME280;10804;48.988;2.408;2023-01-25T06:20:25;102731.19;;;6.01;67.55
21290;BME280;10804;48.988;2.408;2023-01-25T06:23:04;102726.03;;;6.01;67.52
21290;BME280;10804;48.988;2.408;2023-01-25T06:25:33;102727.72;;;6.00;67.29
21290;BME280;10804;48.988;2.408;2023-01-25T06:28:00;102722.53;;;6.00;67.56
21290;BME280;10804;48.988;2.408;2023-01-25T06:30:28;102717.31;;;5.99;67.65
21290;BME280;10804;48.988;2.408;2023-01-25T06:32:56;102723.38;;;5.99;67.54
21290;BME280;10804;48.988;2.408;2023-01-25T06:35:24;102725.97;;;5.99;67.48
21290;BME280;10804;48.988;2.408;2023-01-25T06:37:54;102719.03;;;5.98;67.63
21290;BME280;10804;48.988;2.408;2023-01-25T06:40:21;102719.03;;;5.98;67.30
21290;BME280;10804;48.988;2.408;2023-01-25T06:42:50;102723.38;;;5.99;67.61
21290;BME280;10804;48.988;2.408;2023-01-25T06:45:17;102720.78;;;5.99;67.57
21290;BME280;10804;48.988;2.408;2023-01-25T06:47:47;102715.63;;;5.99;67.42
21290;BME280;10804;48.988;2.408;2023-01-25T06:50:15;102722.44;;;5.96;67.50
21290;BME280;10804;48.988;2.408;2023-01-25T06:52:42;102719.03;;;5.98;67.47
21290;BME280;10804;48.988;2.408;2023-01-25T06:55:09;102716.47;;;5.98;67.49
21290;BME280;10804;48.988;2.408;2023-01-25T06:57:38;102704.34;;;5.97;67.59
21290;BME280;10804;48.988;2.408;2023-01-25T07:00:09;102714.72;;;5.99;67.68
21290;BME280;10804;48.988;2.408;2023-01-25T07:02:37;102706.00;;;5.95;67.65
21290;BME280;10804;48.988;2.408;2023-01-25T07:05:05;102706.06;;;5.97;67.72
21290;BME280;10804;48.988;2.408;2023-01-25T07:07:32;102702.59;;;5.96;67.76
21290;BME280;10804;48.988;2.408;2023-01-25T07:09:59;102703.47;;;5.97;67.62
21290;BME280;10804;48.988;2.408;2023-01-25T07:12:27;102705.09;;;5.93;67.52
21290;BME280;10804;48.988;2.408;2023-01-25T07:14:54;102700.88;;;5.97;67.34
21290;BME280;10804;48.988;2.408;2023-01-25T07:17:23;102704.34;;;5.97;67.56
21290;BME280;10804;48.988;2.408;2023-01-25T07:19:51;102705.16;;;5.95;67.59
21290;BME280;10804;48.988;2.408;2023-01-25T07:22:18;102705.16;;;5.95;67.55
21290;BME280;10804;48.988;2.408;2023-01-25T07:24:45;102701.66;;;5.93;67.54
21290;BME280;10804;48.988;2.408;2023-01-25T07:27:16;102704.25;;;5.94;67.61
21290;BME280;10804;48.988;2.408;2023-01-25T07:29:43;102699.06;;;5.93;67.57
21290;BME280;10804;48.988;2.408;2023-01-25T07:32:11;102707.69;;;5.93;67.56
21290;BME280;10804;48.988;2.408;2023-01-25T07:34:40;102706.84;;;5.93;67.46
21290;BME280;10804;48.988;2.408;2023-01-25T07:37:07;102705.94;;;5.92;67.59
21290;BME280;10804;48.988;2.408;2023-01-25T07:39:35;102705.91;;;5.91;67.67
21290;BME280;10804;48.988;2.408;2023-01-25T07:42:03;102712.81;;;5.90;67.74
21290;BME280;10804;48.988;2.408;2023-01-25T07:44:31;102712.88;;;5.93;67.67
21290;BME280;10804;48.988;2.408;2023-01-25T07:47:11;102706.78;;;5.91;67.52
21290;BME280;10804;48.988;2.408;2023-01-25T07:49:40;102705.91;;;5.91;67.61
21290;BME280;10804;48.988;2.408;2023-01-25T07:52:07;102707.69;;;5.93;67.60
21290;BME280;10804;48.988;2.408;2023-01-25T07:54:35;102700.75;;;5.92;67.47
21290;BME280;10804;48.988;2.408;2023-01-25T07:57:02;102705.03;;;5.90;67.51
21290;BME280;10804;48.988;2.408;2023-01-25T07:59:29;102703.31;;;5.91;67.56
21290;BME280;10804;48.988;2.408;2023-01-25T08:01:57;102709.38;;;5.91;67.45
21290;BME280;10804;48.988;2.408;2023-01-25T08:04:24;102703.25;;;5.88;67.67
21290;BME280;10804;48.988;2.408;2023-01-25T08:06:53;102705.09;;;5.92;67.62
21290;BME280;10804;48.988;2.408;2023-01-25T08:09:20;102706.75;;;5.90;67.45
21290;BME280;10804;48.988;2.408;2023-01-25T08:11:48;102702.34;;;5.87;67.67
21290;BME280;10804;48.988;2.408;2023-01-25T08:14:15;102702.34;;;5.87;67.63
21290;BME280;10804;48.988;2.408;2023-01-25T08:16:42;102705.88;;;5.89;67.58
21290;BME280;10804;48.988;2.408;2023-01-25T08:19:10;102705.88;;;5.89;67.61
21290;BME280;10804;48.988;2.408;2023-01-25T08:21:38;102702.34;;;5.87;67.53
21290;BME280;10804;48.988;2.408;2023-01-25T08:24:07;102693.78;;;5.88;67.53
21290;BME280;10804;48.988;2.408;2023-01-25T08:26:35;102694.59;;;5.87;67.59
21290;BME280;10804;48.988;2.408;2023-01-25T08:29:04;102701.50;;;5.87;67.56
21290;BME280;10804;48.988;2.408;2023-01-25T08:31:33;102695.47;;;5.88;67.50
21290;BME280;10804;48.988;2.408;2023-01-25T08:34:01;102704.94;;;5.87;67.46
21290;BME280;10804;48.988;2.408;2023-01-25T08:36:29;102692.00;;;5.87;67.59
21290;BME280;10804;48.988;2.408;2023-01-25T08:38:58;102702.34;;;5.87;67.86
21290;BME280;10804;48.988;2.408;2023-01-25T08:41:29;102702.28;;;5.84;67.50
21290;BME280;10804;48.988;2.408;2023-01-25T08:43:57;102700.59;;;5.86;67.89
21290;BME280;10804;48.988;2.408;2023-01-25T08:46:27;102693.69;;;5.85;67.52
21290;BME280;10804;48.988;2.408;2023-01-25T08:48:55;102704.13;;;5.88;67.77
21290;BME280;10804;48.988;2.408;2023-01-25T08:51:24;102692.78;;;5.83;67.34
21290;BME280;10804;48.988;2.408;2023-01-25T08:53:51;102697.16;;;5.86;67.59
21290;BME280;10804;48.988;2.408;2023-01-25T08:56:19;102690.13;;;5.82;67.66
21290;BME280;10804;48.988;2.408;2023-01-25T08:58:49;102683.28;;;5.84;67.59
21290;BME280;10804;48.988;2.408;2023-01-25T09:01:18;102685.91;;;5.85;67.47
21290;BME280;10804;48.988;2.408;2023-01-25T09:03:47;102687.66;;;5.85;67.61
21290;BME280;10804;48.988;2.408;2023-01-25T09:06:15;102691.03;;;5.84;67.54
21290;BME280;10804;48.988;2.408;2023-01-25T09:08:43;102690.22;;;5.85;67.63
21290;BME280;10804;48.988;2.408;2023-01-25T09:11:12;102685.91;;;5.85;67.40
21290;BME280;10804;48.988;2.408;2023-01-25T09:13:40;102684.13;;;5.83;67.57
21290;BME280;10804;48.988;2.408;2023-01-25T09:16:11;102686.69;;;5.81;67.70
21290;BME280;10804;48.988;2.408;2023-01-25T09:18:40;102684.16;;;5.84;67.90
21290;BME280;10804;48.988;2.408;2023-01-25T09:21:10;102684.09;;;5.81;67.50
21290;BME280;10804;48.988;2.408;2023-01-25T09:23:37;102684.13;;;5.83;67.65
21290;BME280;10804;48.988;2.408;2023-01-25T09:26:05;102683.28;;;5.84;67.58
21290;BME280;10804;48.988;2.408;2023-01-25T09:28:33;102679.81;;;5.83;67.54
21290;BME280;10804;48.988;2.408;2023-01-25T09:31:02;102682.41;;;5.83;67.54
21290;BME280;10804;48.988;2.408;2023-01-25T09:33:51;102678.94;;;5.83;67.35
21290;BME280;10804;48.988;2.408;2023-01-25T09:36:18;102679.78;;;5.80;67.55
21290;BME280;10804;48.988;2.408;2023-01-25T09:38:46;102665.97;;;5.81;67.80
21290;BME280;10804;48.988;2.408;2023-01-25T09:41:23;102673.75;;;5.81;67.58
21290;BME280;10804;48.988;2.408;2023-01-25T09:44:02;102675.50;;;5.82;67.54
21290;BME280;10804;48.988;2.408;2023-01-25T09:46:39;102674.66;;;5.83;67.37
21290;BME280;10804;48.988;2.408;2023-01-25T09:49:23;102678.09;;;5.82;67.48
21290;BME280;10804;48.988;2.408;2023-01-25T09:52:06;102679.78;;;5.82;67.37
21290;BME280;10804;48.988;2.408;2023-01-25T09:54:39;102676.19;;;5.78;67.33
21290;BME280;10804;48.988;2.408;2023-01-25T09:57:14;102676.34;;;5.83;67.41
21290;BME280;10804;48.988;2.408;2023-01-25T09:59:43;102677.88;;;5.76;67.57
21290;BME280;10804;48.988;2.408;2023-01-25T10:02:18;102684.06;;;5.80;67.34
21290;BME280;10804;48.988;2.408;2023-01-25T10:04:53;102684.94;;;5.80;67.64
21290;BME280;10804;48.988;2.408;2023-01-25T10:07:26;102689.28;;;5.83;67.58
21290;BME280;10804;48.988;2.408;2023-01-25T10:10:00;102678.09;;;5.82;67.72
21290;BME280;10804;48.988;2.408;2023-01-25T10:12:37;102683.97;;;5.78;67.61
21290;BME280;10804;48.988;2.408;2023-01-25T10:15:17;102686.69;;;5.81;67.64
21290;BME280;10804;48.988;2.408;2023-01-25T10:17:48;102690.97;;;5.81;67.60
21290;BME280;10804;48.988;2.408;2023-01-25T10:20:30;102692.63;;;5.79;67.68
21290;BME280;10804;48.988;2.408;2023-01-25T10:23:23;102686.56;;;5.78;67.46
21290;BME280;10804;48.988;2.408;2023-01-25T10:25:56;102687.41;;;5.77;67.72
21290;BME280;10804;48.988;2.408;2023-01-25T10:28:32;102683.16;;;5.79;67.70
21290;BME280;10804;48.988;2.408;2023-01-25T10:31:05;102684.75;;;5.76;67.81
21290;BME280;10804;48.988;2.408;2023-01-25T10:33:37;102682.28;;;5.79;67.85
21290;BME280;10804;48.988;2.408;2023-01-25T10:36:12;102676.19;;;5.77;67.72
21290;BME280;10804;48.988;2.408;2023-01-25T10:38:41;102677.19;;;5.80;67.46
21290;BME280;10804;48.988;2.408;2023-01-25T10:41:15;102684.81;;;5.77;67.75
21290;BME280;10804;48.988;2.408;2023-01-25T10:43:44;102680.53;;;5.78;67.42
21290;BME280;10804;48.988;2.408;2023-01-25T10:46:17;102681.38;;;5.78;67.46
21290;BME280;10804;48.988;2.408;2023-01-25T10:48:45;102679.78;;;5.80;67.81
21290;BME280;10804;48.988;2.408;2023-01-25T10:51:30;102679.63;;;5.77;67.56
21290;BME280;10804;48.988;2.408;2023-01-25T10:54:00;102667.63;;;5.79;67.46
21290;BME280;10804;48.988;2.408;2023-01-25T10:56:29;102664.09;;;5.77;67.62
21290;BME280;10804;48.988;2.408;2023-01-25T10:59:07;102673.63;;;5.78;67.67
21290;BME280;10804;48.988;2.408;2023-01-25T11:01:35;102670.16;;;5.78;67.62
21290;BME280;10804;48.988;2.408;2023-01-25T11:04:22;102655.50;;;5.78;67.46
21290;BME280;10804;48.988;2.408;2023-01-25T11:06:51;102665.84;;;5.78;67.70
21290;BME280;10804;48.988;2.408;2023-01-25T11:09:36;102658.09;;;5.78;67.53
21290;BME280;10804;48.988;2.408;2023-01-25T11:12:15;102660.66;;;5.77;67.43
21290;BME280;10804;48.988;2.408;2023-01-25T11:14:43;102653.75;;;5.77;67.62
21290;BME280;10804;48.988;2.408;2023-01-25T11:17:22;102643.41;;;5.77;67.46
21290;BME280;10804;48.988;2.408;2023-01-25T11:20:13;102634.72;;;5.75;67.45
21290;BME280;10804;48.988;2.408;2023-01-25T11:22:50;102635.69;;;5.79;67.53
21290;BME280;10804;48.988;2.408;2023-01-25T11:25:29;102628.75;;;5.78;67.42
21290;BME280;10804;48.988;2.408;2023-01-25T11:28:10;102632.13;;;5.75;67.80
21290;BME280;10804;48.988;2.408;2023-01-25T11:30:38;102628.66;;;5.75;67.49
21290;BME280;10804;48.988;2.408;2023-01-25T11:33:09;102611.22;;;5.68;67.78
21290;BME280;10804;48.988;2.408;2023-01-25T11:35:49;102609.69;;;5.76;67.63
21290;BME280;10804;48.988;2.408;2023-01-25T11:38:21;102612.34;;;5.77;67.79
21290;BME280;10804;48.988;2.408;2023-01-25T11:40:55;102601.97;;;5.77;67.66
21290;BME280;10804;48.988;2.408;2023-01-25T11:43:45;102601.13;;;5.77;67.66
21290;BME280;10804;48.988;2.408;2023-01-25T11:46:22;102607.09;;;5.74;67.73
21290;BME280;10804;48.988;2.408;2023-01-25T11:49:02;102593.31;;;5.75;67.57
21290;BME280;10804;48.988;2.408;2023-01-25T11:51:36;102585.50;;;5.74;67.55
21290;BME280;10804;48.988;2.408;2023-01-25T11:54:31;102571.66;;;5.72;67.31
21290;BME280;10804;48.988;2.408;2023-01-25T11:57:09;102569.91;;;5.71;67.41
21290;BME280;10804;48.988;2.408;2023-01-25T11:59:53;102559.56;;;5.71;67.75
21290;BME280;10804;48.988;2.408;2023-01-25T12:02:46;102551.81;;;5.72;67.46
21290;BME280;10804;48.988;2.408;2023-01-25T12:05:35;102537.97;;;5.70;67.68
21290;BME280;10804;48.988;2.408;2023-01-25T12:08:17;102525.91;;;5.72;67.42
21290;BME280;10804;48.988;2.408;2023-01-25T12:10:53;102527.69;;;5.73;67.78
21290;BME280;10804;48.988;2.408;2023-01-25T12:13:29;102513.81;;;5.71;67.32
21290;BME280;10804;48.988;2.408;2023-01-25T12:16:14;102511.28;;;5.73;67.65
21290;BME280;10804;48.988;2.408;2023-01-25T12:19:17;102507.78;;;5.72;67.40
21290;BME280;10804;48.988;2.408;2023-01-25T12:22:08;102501.72;;;5.70;67.35
21290;BME280;10804;48.988;2.408;2023-01-25T12:24:48;102499.13;;;5.69;67.78
21290;BME280;10804;48.988;2.408;2023-01-25T12:27:28;102491.38;;;5.70;67.77
21290;BME280;10804;48.988;2.408;2023-01-25T12:30:03;102483.59;;;5.70;67.55
21290;BME280;10804;48.988;2.408;2023-01-25T12:32:42;102464.59;;;5.68;67.60
21290;BME280;10804;48.988;2.408;2023-01-25T12:35:22;102469.75;;;5.68;67.60
21290;BME280;10804;48.988;2.408;2023-01-25T12:37:53;102464.59;;;5.68;67.42
21290;BME280;10804;48.988;2.408;2023-01-25T12:40:31;102462.00;;;5.68;67.34
21290;BME280;10804;48.988;2.408;2023-01-25T12:43:02;102453.38;;;5.69;67.37
21290;BME280;10804;48.988;2.408;2023-01-25T12:45:34;102449.09;;;5.71;67.52
21290;BME280;10804;48.988;2.408;2023-01-25T12:48:13;102442.13;;;5.67;67.46
21290;BME280;10804;48.988;2.408;2023-01-25T12:50:47;102433.47;;;5.67;67.59
21290;BME280;10804;48.988;2.408;2023-01-25T12:53:19;102433.47;;;5.67;67.57
21290;BME280;10804;48.988;2.408;2023-01-25T12:55:48;102421.44;;;5.67;67.55
21290;BME280;10804;48.988;2.408;2023-01-25T12:58:23;102417.09;;;5.66;67.66
21290;BME280;10804;48.988;2.408;2023-01-25T13:00:56;102418.00;;;5.68;67.60
21290;BME280;10804;48.988;2.408;2023-01-25T13:03:32;102415.41;;;5.68;67.66
21290;BME280;10804;48.988;2.408;2023-01-25T13:06:10;102413.72;;;5.69;67.76
21290;BME280;10804;48.988;2.408;2023-01-25T13:08:48;102402.50;;;5.70;67.63
21290;BME280;10804;48.988;2.408;2023-01-25T13:11:22;102401.53;;;5.65;67.60
21290;BME280;10804;48.988;2.408;2023-01-25T13:14:28;102401.59;;;5.68;67.69
21290;BME280;10804;48.988;2.408;2023-01-25T13:17:10;102400.69;;;5.66;67.40
21290;BME280;10804;48.988;2.408;2023-01-25T13:19:38;102389.53;;;5.68;67.69
21290;BME280;10804;48.988;2.408;2023-01-25T13:22:08;102392.16;;;5.70;67.55
21290;BME280;10804;48.988;2.408;2023-01-25T13:25:07;102385.25;;;5.69;67.60